Pagrindinis puslapis
METAR-TAF:

METAR-TAF

Oro uostai :

Londono Stanstedo oro uostas

Londonas Stansted, Anglija

platuma: 51-53N, ilguma: 000-14E, Aukštis: 106 m

Dabartinis oras

Ataskaita buvo paskelbta 49 minutes, ne 10:20 UTC
Vėjas 10 kt iš Rytų/Šiaurės Rytų, svyruoja nuo Šiaurės Rytų ir Rytų/Pietryčių
Temperatūra 9°C
Drėgmė 61%
Slėgis 1033 hPa
Matomumas 10 km arba daugiau
Išsisklaidę debesys ne aukštis 3000 ft
Su prošvaistėmis ne aukštis 3800 ft

METAR: EGSS 311020Z AUTO 07010KT 050V110 9999 SCT030 BKN038 09/02 Q1033

Laikas: 12:09 (11:09 UTC)

Prognozė

Ataskaita buvo paskelbta 6 valandos ir 8 minutes, ne 05:01 UTC
Prognozė galioja nuo 31 metu 06 UTC su 01 metu 12 UTC
Vėjas 10 kt iš Šiaurės/Šiaurės Rytų
Matomumas 10 km arba daugiau
Mažai debesys ne aukštis 3000 ft
Tapsmas
nuo 31 metu 21 UTC su 31 metu 24 UTC
Vėjas 3 kt nuo kintamojo kryptimis
Tikimybė 30%
nuo 01 metu 01 UTC su 01 metu 07 UTC
Matomumas: 8000 m

TAF: EGSS 310501Z 3106/0112 02010KT 9999 FEW030 BECMG 3121/3124 VRB03KT PROB30 0101/0107 8000

Orai ataskaitas ir orų prognozės (METAR, TAF).

turimą stotys yra geltonos ir raudonos taškus žemėlapyje.

Perkelti pele per norėdami pamatyti stoties vardą.

Tada spustelėkite, norėdami matyti oro stebėjimo ir prognozės.

Norėdami pakeisti žemėlapį: spustelėkite ant žalios mygtukų su juodo kryžiaus žemyn,; žalią mygtuką su brūkšneliu, jei norite nutolinti; arba žalių rodyklių gretimoms žemėlapius.


METAR-TAF: